createdAt,value
2019-05-10T00:00:44.571Z,68.64
2019-05-10T00:01:44.725Z,61.55
2019-05-10T00:02:44.902Z,52.85
2019-05-10T00:03:45.071Z,57.04
2019-05-10T00:04:45.238Z,60.75
2019-05-10T00:05:45.439Z,54.14
2019-05-10T00:06:45.608Z,53.66
2019-05-10T00:07:45.788Z,61.71
2019-05-10T00:08:45.993Z,70.90
2019-05-10T00:09:46.163Z,81.05
2019-05-10T00:10:46.324Z,51.40
2019-05-10T00:11:49.173Z,55.59
2019-05-10T00:12:48.614Z,50.76
2019-05-10T00:13:46.767Z,76.54
2019-05-10T00:14:47.950Z,57.20
2019-05-10T00:15:47.076Z,54.14
2019-05-10T00:16:47.269Z,58.81
2019-05-10T00:17:47.455Z,68.80
2019-05-10T00:18:47.646Z,60.75
2019-05-10T00:19:49.608Z,55.75
2019-05-10T00:20:47.958Z,51.08
2019-05-10T00:21:48.125Z,58.17
2019-05-10T00:22:49.108Z,50.92
2019-05-10T00:23:48.621Z,76.22
2019-05-10T00:25:02.149Z,70.74
2019-05-10T00:25:51.598Z,55.59
2019-05-10T00:26:49.989Z,71.70
2019-05-10T00:27:50.113Z,58.01
2019-05-10T00:28:50.143Z,53.50
2019-05-10T00:29:49.455Z,52.53
2019-05-10T00:30:50.622Z,77.67
2019-05-10T00:31:49.758Z,51.40
2019-05-10T00:32:49.943Z,58.97
2019-05-10T00:33:51.107Z,56.40
2019-05-10T00:34:50.351Z,55.59
2019-05-10T00:35:50.511Z,58.01
2019-05-10T00:36:50.669Z,54.62
2019-05-10T00:37:50.832Z,51.88
2019-05-10T00:38:51.032Z,73.48
2019-05-10T00:39:51.205Z,53.01
2019-05-10T00:40:51.381Z,50.43
2019-05-10T00:41:52.120Z,58.49
2019-05-10T00:42:51.638Z,67.68
2019-05-10T00:43:52.619Z,53.01
2019-05-10T00:44:52.060Z,58.97
2019-05-10T00:45:52.257Z,53.82
2019-05-10T00:46:52.427Z,53.50
2019-05-10T00:47:54.120Z,53.01
2019-05-10T00:48:52.762Z,55.59
2019-05-10T00:49:52.910Z,61.55
2019-05-10T00:50:53.095Z,50.92
2019-05-10T00:51:53.278Z,53.82
2019-05-10T00:52:53.459Z,70.09
2019-05-10T00:53:53.656Z,58.97
2019-05-10T00:54:53.817Z,53.17
2019-05-10T00:55:54.016Z,73.15
2019-05-10T00:56:54.167Z,57.20
2019-05-10T00:57:54.339Z,58.01
2019-05-10T00:58:54.492Z,58.97
2019-05-10T00:59:54.653Z,60.10
2019-05-10T01:00:54.842Z,50.11
2019-05-10T01:01:55.000Z,50.92
2019-05-10T01:02:56.134Z,58.33
2019-05-10T01:03:55.408Z,51.08
2019-05-10T01:04:55.580Z,51.24
2019-05-10T01:05:55.771Z,72.51
2019-05-10T01:06:56.467Z,51.88
2019-05-10T01:07:57.071Z,50.92
2019-05-10T01:08:57.123Z,54.14
2019-05-10T01:09:57.114Z,54.30
2019-05-10T01:10:56.613Z,51.72
2019-05-10T01:11:56.778Z,59.14
2019-05-10T01:12:57.913Z,58.01
2019-05-10T01:13:57.153Z,50.11
2019-05-10T01:14:57.324Z,55.43
2019-05-10T01:15:58.161Z,51.56
2019-05-10T01:16:57.705Z,61.71
2019-05-10T01:17:57.838Z,71.22
2019-05-10T01:18:57.996Z,56.88
2019-05-10T01:19:58.253Z,49.95
2019-05-10T01:20:58.325Z,50.60
2019-05-10T01:21:58.477Z,54.79
2019-05-10T01:22:58.636Z,50.60
2019-05-10T01:23:58.782Z,59.78
2019-05-10T01:24:58.944Z,51.08
2019-05-10T01:25:59.090Z,56.24
2019-05-10T01:27:00.117Z,49.15
2019-05-10T01:27:59.383Z,62.20
2019-05-10T01:28:59.510Z,59.62
2019-05-10T01:29:59.661Z,78.15
2019-05-10T01:30:59.818Z,50.43
2019-05-10T01:31:59.991Z,55.27
2019-05-10T01:33:00.206Z,54.30
2019-05-10T01:34:00.349Z,58.49
2019-05-10T01:35:00.476Z,49.95
2019-05-10T01:36:01.625Z,49.47
2019-05-10T01:37:00.862Z,51.08
2019-05-10T01:38:01.016Z,78.47
2019-05-10T01:39:01.186Z,57.85
2019-05-10T01:40:02.120Z,58.17
2019-05-10T01:41:01.502Z,59.30
2019-05-10T01:42:01.631Z,78.63
2019-05-10T01:43:01.766Z,79.44
2019-05-10T01:44:01.956Z,53.01
2019-05-10T01:45:02.148Z,51.72
2019-05-10T01:46:02.314Z,78.47
2019-05-10T01:47:02.482Z,75.41
2019-05-10T01:48:02.625Z,74.28
2019-05-10T01:49:02.798Z,77.18
2019-05-10T01:50:03.014Z,73.96
2019-05-10T01:51:03.245Z,56.72
2019-05-10T01:52:03.436Z,71.06
2019-05-10T01:53:03.588Z,51.56
2019-05-10T01:54:03.730Z,57.36
2019-05-10T01:55:03.931Z,76.54
2019-05-10T01:56:04.634Z,54.30
2019-05-10T01:57:05.117Z,51.56
2019-05-10T01:58:05.508Z,53.50
2019-05-10T01:59:05.644Z,71.70
2019-05-10T02:00:04.884Z,61.71
2019-05-10T02:01:05.028Z,61.55
2019-05-10T02:02:05.187Z,51.56
2019-05-10T02:03:05.379Z,52.21
2019-05-10T02:04:05.559Z,74.77
2019-05-10T02:05:05.763Z,54.46
2019-05-10T02:06:05.929Z,61.39
2019-05-10T02:07:06.106Z,55.27
2019-05-10T02:08:06.250Z,61.55
2019-05-10T02:09:06.390Z,55.75
2019-05-10T02:10:06.572Z,78.47
2019-05-10T02:11:06.795Z,57.04
2019-05-10T02:12:07.625Z,58.49
2019-05-10T02:13:07.139Z,56.40
2019-05-10T02:14:09.123Z,59.62
2019-05-10T02:15:07.495Z,75.41
2019-05-10T02:16:07.626Z,58.81
2019-05-10T02:17:07.811Z,57.04
2019-05-10T02:18:07.976Z,59.62
2019-05-10T02:19:08.136Z,60.59
2019-05-10T02:20:08.636Z,61.07
2019-05-10T02:21:08.659Z,75.41
2019-05-10T02:22:08.554Z,69.45
2019-05-10T02:23:08.712Z,68.16
2019-05-10T02:24:08.890Z,72.67
2019-05-10T02:25:09.071Z,57.69
2019-05-10T02:26:10.059Z,77.99
2019-05-10T02:27:10.484Z,72.67
2019-05-10T02:28:09.612Z,56.56
2019-05-10T02:29:09.786Z,79.76
2019-05-10T02:30:09.940Z,58.17
2019-05-10T02:31:10.143Z,58.17
2019-05-10T02:32:10.308Z,57.69
2019-05-10T02:33:11.136Z,59.94
2019-05-10T02:34:10.645Z,76.22
2019-05-10T02:35:10.788Z,75.25
2019-05-10T02:36:10.973Z,79.76
2019-05-10T02:37:11.637Z,74.28
2019-05-10T02:38:11.254Z,71.70
2019-05-10T02:39:11.388Z,78.79
2019-05-10T02:40:11.555Z,59.62
2019-05-10T02:41:11.714Z,69.29
2019-05-10T02:42:11.876Z,75.25
2019-05-10T02:43:12.028Z,59.78
2019-05-10T02:44:12.223Z,76.70
2019-05-10T02:45:12.393Z,77.50
2019-05-10T02:46:13.542Z,77.67
2019-05-10T02:47:12.765Z,75.25
2019-05-10T02:48:12.896Z,61.23
2019-05-10T02:49:13.152Z,62.84
2019-05-10T02:50:13.268Z,62.68
2019-05-10T02:51:13.399Z,75.89
2019-05-10T02:52:13.533Z,67.03
2019-05-10T02:53:14.628Z,68.16
2019-05-10T02:54:13.885Z,81.05
2019-05-10T02:55:14.109Z,73.80
2019-05-10T02:56:29.716Z,66.06
2019-05-10T02:57:16.379Z,75.57
2019-05-10T02:58:15.450Z,67.03
2019-05-10T02:59:15.757Z,64.94
2019-05-10T03:00:14.856Z,66.39
2019-05-10T03:01:14.993Z,78.79
2019-05-10T03:02:16.141Z,73.96
2019-05-10T03:03:15.399Z,67.84
2019-05-10T03:04:15.583Z,77.02
2019-05-10T03:05:16.633Z,77.67
2019-05-10T03:06:15.873Z,81.05
2019-05-10T03:07:16.643Z,66.23
2019-05-10T03:08:17.130Z,76.54
2019-05-10T03:09:16.452Z,72.19
2019-05-10T03:10:17.145Z,78.47
2019-05-10T03:11:16.796Z,77.99
2019-05-10T03:12:16.930Z,81.86
2019-05-10T03:13:17.640Z,65.90
2019-05-10T03:14:17.258Z,81.53
2019-05-10T03:15:17.380Z,66.55
2019-05-10T03:16:17.521Z,75.25
2019-05-10T03:17:17.632Z,82.02
2019-05-10T03:18:18.636Z,78.47
2019-05-10T03:19:18.151Z,64.78
2019-05-10T03:20:18.292Z,79.28
2019-05-10T03:21:19.133Z,77.50
2019-05-10T03:22:18.634Z,76.54
2019-05-10T03:23:18.787Z,77.18
2019-05-10T03:24:18.953Z,76.54
2019-05-10T03:25:19.099Z,81.86
2019-05-10T03:26:19.241Z,79.44
2019-05-10T03:27:19.381Z,78.15
2019-05-10T03:28:19.522Z,78.47
2019-05-10T03:29:19.699Z,78.15
2019-05-10T03:30:19.862Z,79.44
2019-05-10T03:31:20.020Z,63.97
2019-05-10T03:32:20.200Z,80.89
2019-05-10T03:33:20.390Z,78.63
2019-05-10T03:34:20.569Z,77.99
2019-05-10T03:35:20.734Z,78.63
2019-05-10T03:36:20.912Z,77.67
2019-05-10T03:37:21.084Z,76.22
2019-05-10T03:38:21.254Z,77.67
2019-05-10T03:39:40.317Z,78.31
2019-05-10T03:40:21.592Z,77.02
2019-05-10T03:41:22.766Z,76.70
2019-05-10T03:42:21.908Z,77.50
2019-05-10T03:43:22.055Z,77.02
2019-05-10T03:44:22.184Z,72.03
2019-05-10T03:45:22.334Z,78.96
2019-05-10T03:46:22.467Z,80.89
2019-05-10T03:47:22.648Z,79.92
2019-05-10T03:48:22.809Z,79.12
2019-05-10T03:49:22.951Z,80.57
2019-05-10T03:50:23.111Z,78.63
2019-05-10T03:51:23.264Z,79.28
2019-05-10T03:52:23.463Z,78.96
2019-05-10T03:53:23.597Z,79.60
2019-05-10T03:54:24.650Z,76.22
2019-05-10T03:55:24.154Z,80.41
2019-05-10T03:56:24.176Z,72.83
2019-05-10T03:57:24.295Z,80.08
2019-05-10T03:58:25.420Z,80.08
2019-05-10T03:59:25.156Z,73.48
2019-05-10T04:00:24.757Z,77.34
2019-05-10T04:01:24.909Z,58.97
2019-05-10T04:02:25.045Z,77.99
2019-05-10T04:03:25.204Z,76.38
2019-05-10T04:04:25.345Z,80.08
2019-05-10T04:05:25.484Z,72.51
2019-05-10T04:06:26.613Z,80.08
2019-05-10T04:07:25.862Z,78.79
2019-05-10T04:08:26.029Z,75.73
2019-05-10T04:09:26.172Z,82.66
2019-05-10T04:10:26.328Z,77.99
2019-05-10T04:11:26.472Z,78.31
2019-05-10T04:12:26.633Z,77.99
2019-05-10T04:13:27.651Z,77.34
2019-05-10T04:14:26.919Z,79.44
2019-05-10T04:15:27.104Z,77.18
2019-05-10T04:16:27.264Z,76.86
2019-05-10T04:17:27.461Z,80.73
2019-05-10T04:18:27.594Z,77.50
2019-05-10T04:19:28.745Z,75.89
2019-05-10T04:20:27.972Z,83.14
2019-05-10T04:21:28.206Z,80.24
2019-05-10T04:22:28.377Z,83.63
2019-05-10T04:23:28.497Z,77.18
2019-05-10T04:24:28.656Z,76.54
2019-05-10T04:25:29.158Z,77.02
2019-05-10T04:26:29.025Z,78.96
2019-05-10T04:27:32.834Z,82.50
2019-05-10T04:28:30.652Z,79.60
2019-05-10T04:29:30.157Z,75.57
2019-05-10T04:30:31.839Z,80.89
2019-05-10T04:31:30.841Z,75.41
2019-05-10T04:32:30.084Z,79.60
2019-05-10T04:33:31.279Z,81.69
2019-05-10T04:34:30.371Z,79.92
2019-05-10T04:35:31.150Z,76.22
2019-05-10T04:36:30.649Z,82.02
2019-05-10T04:37:30.806Z,79.76
2019-05-10T04:38:30.988Z,83.47
2019-05-10T04:39:31.127Z,75.73
2019-05-10T04:40:31.270Z,77.18
2019-05-10T04:41:31.399Z,77.50
2019-05-10T04:42:32.147Z,78.79
2019-05-10T04:43:32.782Z,78.96
2019-05-10T04:44:32.897Z,88.62
2019-05-10T04:45:32.677Z,93.46
2019-05-10T04:46:33.142Z,81.05
2019-05-10T04:47:32.457Z,81.69
2019-05-10T04:48:32.603Z,84.92
2019-05-10T04:49:33.646Z,75.57
2019-05-10T04:50:33.652Z,77.02
2019-05-10T04:51:33.647Z,78.79
2019-05-10T04:52:33.136Z,80.41
2019-05-10T04:53:33.288Z,76.22
2019-05-10T04:54:33.440Z,78.31
2019-05-10T04:55:33.596Z,77.67
2019-05-10T04:56:34.653Z,78.31
2019-05-10T04:57:49.210Z,77.50
2019-05-10T04:58:36.114Z,80.57
2019-05-10T04:59:34.362Z,82.82
2019-05-10T05:00:34.508Z,77.50
2019-05-10T05:01:34.656Z,78.15
2019-05-10T05:02:34.787Z,81.69
2019-05-10T05:03:34.948Z,70.09
2019-05-10T05:04:35.135Z,79.28
2019-05-10T05:05:35.261Z,72.83
2019-05-10T05:06:36.147Z,78.96
2019-05-10T05:07:35.616Z,76.54
2019-05-10T05:08:35.767Z,77.99
2019-05-10T05:09:35.939Z,77.50
2019-05-10T05:10:36.119Z,76.54
2019-05-10T05:11:36.277Z,79.28
2019-05-10T05:12:36.452Z,78.31
2019-05-10T05:13:36.635Z,80.57
2019-05-10T05:14:36.792Z,77.67
2019-05-10T05:15:37.161Z,76.70
2019-05-10T05:16:37.093Z,87.50
2019-05-10T05:17:37.306Z,79.28
2019-05-10T05:18:37.488Z,82.82
2019-05-10T05:19:40.866Z,78.47
2019-05-10T05:20:38.823Z,80.57
2019-05-10T05:21:37.958Z,78.79
2019-05-10T05:22:38.187Z,81.86
2019-05-10T05:23:38.399Z,79.44
2019-05-10T05:24:38.589Z,81.21
2019-05-10T05:25:40.322Z,77.83
2019-05-10T05:26:40.658Z,78.47
2019-05-10T05:27:39.132Z,79.44
2019-05-10T05:28:39.304Z,77.99
2019-05-10T05:29:39.453Z,80.24
2019-05-10T05:30:39.592Z,77.02
2019-05-10T05:31:39.770Z,80.24
2019-05-10T05:32:44.462Z,76.86
2019-05-10T05:33:42.146Z,77.83
2019-05-10T05:34:40.356Z,79.60
2019-05-10T05:35:40.489Z,82.98
2019-05-10T05:36:40.647Z,76.70
2019-05-10T05:37:40.801Z,81.86
2019-05-10T05:38:47.161Z,78.63
2019-05-10T05:39:42.068Z,80.24
2019-05-10T05:40:41.209Z,77.99
2019-05-10T05:41:48.946Z,83.95
2019-05-10T05:42:44.162Z,80.08
2019-05-10T05:43:46.304Z,80.41
2019-05-10T05:44:42.897Z,79.60
2019-05-10T05:45:42.015Z,76.22
2019-05-10T05:46:42.661Z,81.05
2019-05-10T05:47:44.746Z,81.86
2019-05-10T05:48:42.623Z,79.44
2019-05-10T05:49:42.791Z,80.24
2019-05-10T05:50:42.931Z,77.99
2019-05-10T05:51:43.090Z,80.41
2019-05-10T05:52:43.244Z,79.60
2019-05-10T05:53:44.812Z,81.86
2019-05-10T05:54:44.665Z,78.79
2019-05-10T05:55:43.811Z,82.50
2019-05-10T05:56:44.608Z,80.89
2019-05-10T05:57:46.112Z,82.82
2019-05-10T05:58:46.879Z,79.12
2019-05-10T05:59:48.939Z,78.96
2019-05-10T06:00:46.563Z,81.37
2019-05-10T06:01:45.840Z,83.47
2019-05-10T06:02:46.673Z,78.47
2019-05-10T06:03:45.179Z,79.12
2019-05-10T06:04:46.369Z,82.82
2019-05-10T06:05:46.461Z,77.50
2019-05-10T06:06:45.724Z,80.41
2019-05-10T06:07:45.863Z,77.50
2019-05-10T06:08:46.071Z,83.31
2019-05-10T06:09:46.244Z,77.99
2019-05-10T06:10:56.838Z,81.53
2019-05-10T06:11:48.660Z,80.73
2019-05-10T06:12:50.320Z,84.27
2019-05-10T06:13:49.056Z,77.50
2019-05-10T06:14:49.951Z,80.57
2019-05-10T06:15:48.469Z,79.44
2019-05-10T06:16:51.072Z,79.76
2019-05-10T06:17:56.718Z,78.47
2019-05-10T06:18:49.979Z,78.96
2019-05-10T06:19:49.073Z,80.73
2019-05-10T06:21:07.225Z,82.34
2019-05-10T06:21:48.504Z,80.08
2019-05-10T06:23:04.952Z,79.60
2019-05-10T06:24:13.507Z,80.57
2019-05-10T06:24:52.383Z,82.18
2019-05-10T06:25:50.146Z,81.53
2019-05-10T06:26:49.257Z,79.12
2019-05-10T06:27:49.391Z,78.31
2019-05-10T06:29:10.470Z,78.31
2019-05-10T06:29:51.683Z,77.50
2019-05-10T06:30:49.913Z,80.57
2019-05-10T06:31:50.058Z,81.05
2019-05-10T06:32:53.414Z,77.18
2019-05-10T06:33:52.460Z,75.89
2019-05-10T06:34:51.699Z,84.76
2019-05-10T06:35:50.834Z,79.76
2019-05-10T06:36:51.006Z,83.47
2019-05-10T06:37:51.242Z,82.66
2019-05-10T06:38:51.387Z,79.28
2019-05-10T06:39:51.559Z,81.05
2019-05-10T06:40:51.725Z,82.66
2019-05-10T06:41:56.180Z,84.43
2019-05-10T06:42:54.035Z,82.50
2019-05-10T06:43:53.180Z,66.87
2019-05-10T06:44:53.459Z,79.28
2019-05-10T06:45:53.959Z,65.90
2019-05-10T06:46:52.758Z,84.11
2019-05-10T06:47:53.529Z,78.31
2019-05-10T06:48:54.170Z,79.28
2019-05-10T06:49:53.689Z,79.12
2019-05-10T06:50:53.449Z,80.24
2019-05-10T06:51:53.660Z,79.44
2019-05-10T06:52:53.828Z,80.08
2019-05-10T06:53:54.104Z,85.88
2019-05-10T06:54:58.532Z,82.18
2019-05-10T06:55:54.350Z,78.63
2019-05-10T06:56:54.500Z,81.86
2019-05-10T06:58:00.453Z,77.67
2019-05-10T06:59:12.011Z,80.24
2019-05-10T06:59:57.054Z,80.24
2019-05-10T07:00:57.315Z,77.67
2019-05-10T07:01:55.444Z,75.73
2019-05-10T07:02:55.604Z,77.50
2019-05-10T07:03:55.752Z,75.57
2019-05-10T07:04:55.969Z,80.73
2019-05-10T07:05:56.128Z,76.70
2019-05-10T07:06:56.299Z,82.50
2019-05-10T07:08:00.002Z,86.85
2019-05-10T07:08:59.546Z,78.31
2019-05-10T07:10:10.059Z,78.96
2019-05-10T07:10:59.058Z,76.70
2019-05-10T07:11:57.330Z,77.02
2019-05-10T07:13:03.748Z,78.15
2019-05-10T07:13:58.657Z,83.14
2019-05-10T07:15:03.176Z,80.57
2019-05-10T07:15:58.985Z,75.09
2019-05-10T07:17:02.873Z,77.99
2019-05-10T07:18:00.279Z,79.60
2019-05-10T07:19:00.520Z,77.50
2019-05-10T07:19:59.584Z,78.47
2019-05-10T07:21:00.819Z,79.44
2019-05-10T07:22:00.942Z,78.96
2019-05-10T07:23:00.214Z,82.02
2019-05-10T07:24:01.305Z,78.15
2019-05-10T07:25:04.098Z,76.05
2019-05-10T07:26:01.812Z,75.73
2019-05-10T07:27:02.139Z,78.15
2019-05-10T07:28:01.067Z,80.41
2019-05-10T07:29:00.218Z,77.99
2019-05-10T07:30:00.362Z,77.50
2019-05-10T07:31:00.521Z,77.99
2019-05-10T07:32:01.735Z,76.86
2019-05-10T07:33:02.084Z,78.47
2019-05-10T07:34:02.043Z,80.89
2019-05-10T07:35:01.247Z,75.57
2019-05-10T07:36:01.410Z,77.99
2019-05-10T07:37:02.045Z,81.05
2019-05-10T07:38:02.762Z,73.64
2019-05-10T07:39:02.852Z,76.70
2019-05-10T07:40:04.018Z,88.95
2019-05-10T07:41:03.286Z,76.38
2019-05-10T07:42:06.472Z,76.05
2019-05-10T07:43:03.565Z,81.21
2019-05-10T07:44:07.944Z,73.96
2019-05-10T07:45:05.192Z,81.86
2019-05-10T07:46:06.069Z,78.79
2019-05-10T07:47:04.169Z,78.79
2019-05-10T07:48:08.312Z,83.31
2019-05-10T07:49:05.658Z,77.50
2019-05-10T07:50:09.482Z,81.05
2019-05-10T07:51:05.153Z,77.02
2019-05-10T07:52:04.511Z,75.57
2019-05-10T07:53:05.506Z,78.15
2019-05-10T07:54:06.468Z,77.67
2019-05-10T07:55:05.840Z,79.28
2019-05-10T07:56:06.307Z,81.86
2019-05-10T07:57:06.323Z,78.15
2019-05-10T07:58:07.052Z,77.02
2019-05-10T07:59:05.633Z,79.76
2019-05-10T08:00:06.101Z,78.63
2019-05-10T08:01:06.956Z,76.54
2019-05-10T08:02:12.895Z,80.08
2019-05-10T08:03:15.856Z,80.24
2019-05-10T08:04:08.959Z,77.83
2019-05-10T08:05:10.944Z,78.15
2019-05-10T08:06:08.802Z,79.76
2019-05-10T08:07:10.379Z,87.33
2019-05-10T08:08:09.418Z,84.27
2019-05-10T08:09:09.648Z,82.02
2019-05-10T08:10:08.761Z,76.05
2019-05-10T08:11:08.840Z,76.54
2019-05-10T08:12:09.827Z,77.34
2019-05-10T08:13:08.509Z,76.54
2019-05-10T08:14:11.205Z,77.67
2019-05-10T08:15:09.509Z,76.86
2019-05-10T08:16:13.464Z,78.47
2019-05-10T08:17:10.859Z,78.31
2019-05-10T08:18:09.809Z,80.24
2019-05-10T08:19:10.268Z,76.86
2019-05-10T08:21:21.838Z,75.09
2019-05-10T08:22:12.918Z,77.02
2019-05-10T08:23:09.960Z,80.08
2019-05-10T08:24:14.373Z,81.05
2019-05-10T08:25:15.248Z,78.15
2019-05-10T08:26:17.510Z,84.59
2019-05-10T08:27:14.904Z,79.44
2019-05-10T08:28:12.727Z,76.54
2019-05-10T08:29:13.650Z,80.57
2019-05-10T08:30:26.272Z,76.86
2019-05-10T08:31:13.372Z,76.86
2019-05-10T08:32:12.951Z,83.47
2019-05-10T08:33:14.607Z,78.79
2019-05-10T08:34:12.823Z,81.05
2019-05-10T08:35:17.018Z,80.57
2019-05-10T08:36:13.079Z,84.59
2019-05-10T08:37:19.422Z,78.63
2019-05-10T08:38:13.423Z,83.63
2019-05-10T08:39:14.118Z,78.31
2019-05-10T08:40:13.705Z,78.47
2019-05-10T08:41:14.814Z,76.86
2019-05-10T08:42:34.677Z,79.12
2019-05-10T08:43:16.833Z,77.83
2019-05-10T08:44:19.411Z,76.86
2019-05-10T08:45:15.678Z,78.96
2019-05-10T08:46:13.824Z,79.60
2019-05-10T08:47:22.377Z,74.28
2019-05-10T08:48:16.179Z,84.59
2019-05-10T08:49:14.332Z,76.70
2019-05-10T08:50:28.825Z,75.25
2019-05-10T08:51:16.642Z,78.47
2019-05-10T08:52:19.275Z,74.93
2019-05-10T08:53:16.754Z,79.12
2019-05-10T08:54:16.140Z,77.50
2019-05-10T08:55:15.249Z,81.21
2019-05-10T08:56:21.090Z,77.02
2019-05-10T08:57:18.697Z,77.99
2019-05-10T08:58:21.621Z,77.02
2019-05-10T08:59:23.578Z,72.35
2019-05-10T09:00:37.160Z,79.60
2019-05-10T09:01:26.760Z,75.73
2019-05-10T09:02:23.068Z,77.99
2019-05-10T09:03:19.722Z,75.73
2019-05-10T09:04:16.972Z,74.60
2019-05-10T09:05:20.770Z,74.28
2019-05-10T09:06:18.274Z,76.86
2019-05-10T09:07:17.445Z,87.98
2019-05-10T09:08:19.989Z,79.12
2019-05-10T09:09:18.817Z,79.28
2019-05-10T09:10:17.955Z,80.24
2019-05-10T09:11:18.134Z,76.70
2019-05-10T09:12:19.203Z,91.68
2019-05-10T09:13:18.444Z,88.95
2019-05-10T09:14:20.004Z,74.93
2019-05-10T09:15:22.104Z,75.89
2019-05-10T09:16:23.530Z,78.63
2019-05-10T09:17:23.609Z,90.23
2019-05-10T09:18:22.913Z,79.60
2019-05-10T09:19:27.676Z,75.41
2019-05-10T09:20:22.068Z,76.22
2019-05-10T09:21:22.386Z,75.41
2019-05-10T09:22:24.078Z,78.15
2019-05-10T09:23:22.806Z,76.05
2019-05-10T09:24:22.863Z,76.70
2019-05-10T09:25:28.756Z,79.44
2019-05-10T09:26:22.839Z,76.54
2019-05-10T09:27:22.432Z,80.24
2019-05-10T09:28:22.102Z,77.02
2019-05-10T09:29:21.964Z,80.24
2019-05-10T09:30:22.550Z,75.89
2019-05-10T09:31:25.400Z,76.05
2019-05-10T09:32:28.578Z,78.31
2019-05-10T09:33:24.133Z,78.15
2019-05-10T09:34:25.943Z,81.05
2019-05-10T09:35:22.574Z,77.02
2019-05-10T09:36:30.806Z,76.54
2019-05-10T09:37:23.890Z,77.67
2019-05-10T09:38:28.551Z,77.67
2019-05-10T09:39:25.237Z,76.22
2019-05-10T09:40:24.591Z,77.50
2019-05-10T09:41:27.763Z,77.99
2019-05-10T09:42:30.670Z,77.02
2019-05-10T09:43:26.050Z,76.54
2019-05-10T09:44:24.256Z,76.22
2019-05-10T09:45:24.480Z,78.96
2019-05-10T09:46:25.538Z,79.76
2019-05-10T09:47:24.639Z,76.05
2019-05-10T09:48:25.698Z,78.47
2019-05-10T09:49:24.938Z,78.15
2019-05-10T09:50:30.374Z,78.96
2019-05-10T09:51:30.234Z,82.02
2019-05-10T09:52:26.441Z,77.99
2019-05-10T09:53:28.475Z,84.43
2019-05-10T09:54:29.543Z,86.53
2019-05-10T09:55:28.103Z,76.54
2019-05-10T09:56:27.663Z,80.41
2019-05-10T09:57:27.843Z,78.15
2019-05-10T09:58:28.204Z,76.22
2019-05-10T09:59:27.858Z,79.76
2019-05-10T10:00:30.299Z,76.22
2019-05-10T10:01:28.176Z,76.22
2019-05-10T10:02:33.681Z,77.02
2019-05-10T10:03:30.136Z,77.67
2019-05-10T10:04:29.724Z,78.31
2019-05-10T10:05:27.951Z,78.63
2019-05-10T10:06:29.819Z,83.63
2019-05-10T10:07:32.171Z,77.50
2019-05-10T10:08:30.466Z,82.98
2019-05-10T10:09:33.720Z,79.60
2019-05-10T10:10:32.538Z,76.38
2019-05-10T10:11:30.222Z,77.83
2019-05-10T10:12:29.105Z,77.50
2019-05-10T10:13:39.272Z,74.60
2019-05-10T10:14:37.747Z,76.05
2019-05-10T10:15:34.218Z,80.24
2019-05-10T10:16:30.890Z,78.31
2019-05-10T10:17:30.767Z,72.99
2019-05-10T10:18:31.190Z,74.93
2019-05-10T10:19:30.319Z,78.63
2019-05-10T10:20:36.054Z,77.99
2019-05-10T10:21:35.489Z,79.60
2019-05-10T10:22:32.797Z,78.47
2019-05-10T10:23:34.897Z,77.99
2019-05-10T10:24:33.170Z,78.15
2019-05-10T10:25:35.103Z,77.34
2019-05-10T10:26:33.723Z,74.44
2019-05-10T10:27:34.614Z,78.96
2019-05-10T10:28:36.215Z,79.12
2019-05-10T10:29:34.047Z,75.73
2019-05-10T10:30:33.288Z,81.69
2019-05-10T10:31:33.709Z,77.67
2019-05-10T10:32:34.899Z,75.89
2019-05-10T10:33:33.808Z,77.18
2019-05-10T10:34:38.675Z,78.47
2019-05-10T10:35:34.201Z,77.67
2019-05-10T10:36:33.307Z,77.50
2019-05-10T10:37:33.432Z,78.63
2019-05-10T10:38:37.131Z,78.31
2019-05-10T10:39:37.165Z,78.63
2019-05-10T10:40:35.336Z,78.31
2019-05-10T10:41:36.735Z,77.02
2019-05-10T10:42:37.793Z,76.22
2019-05-10T10:43:36.974Z,81.05
2019-05-10T10:44:36.945Z,78.63
2019-05-10T10:45:37.546Z,78.63
2019-05-10T10:46:35.206Z,75.41
2019-05-10T10:47:38.092Z,77.50
2019-05-10T10:48:36.964Z,76.86
2019-05-10T10:49:37.790Z,74.60
2019-05-10T10:50:36.840Z,83.31
2019-05-10T10:51:37.980Z,82.34
2019-05-10T10:52:37.591Z,78.31
2019-05-10T10:53:37.477Z,79.76
2019-05-10T10:54:39.810Z,78.96
2019-05-10T10:55:40.153Z,85.08
2019-05-10T10:56:38.105Z,78.47
2019-05-10T10:57:37.489Z,78.96
2019-05-10T10:58:39.219Z,75.25
2019-05-10T10:59:37.619Z,79.12
2019-05-10T11:00:39.047Z,79.28
2019-05-10T11:01:49.464Z,78.47
2019-05-10T11:02:41.725Z,78.15
2019-05-10T11:03:39.432Z,78.47
2019-05-10T11:04:40.455Z,84.59
2019-05-10T11:05:40.746Z,78.96
2019-05-10T11:06:38.870Z,77.34
2019-05-10T11:07:44.350Z,79.60
2019-05-10T11:08:41.345Z,79.44
2019-05-10T11:09:40.989Z,82.02
2019-05-10T11:10:42.719Z,75.57
2019-05-10T11:11:44.411Z,83.31
2019-05-10T11:12:41.724Z,77.02
2019-05-10T11:13:44.816Z,80.89
2019-05-10T11:14:45.350Z,77.02
2019-05-10T11:15:41.978Z,77.18
2019-05-10T11:16:41.567Z,75.89
2019-05-10T11:17:40.974Z,77.02
2019-05-10T11:18:42.008Z,79.92
2019-05-10T11:19:41.722Z,77.67
2019-05-10T11:20:49.524Z,78.47
2019-05-10T11:21:43.733Z,77.99
2019-05-10T11:22:49.026Z,78.47
2019-05-10T11:23:43.735Z,77.99
2019-05-10T11:24:41.966Z,80.08
2019-05-10T11:25:54.758Z,78.63
2019-05-10T11:26:44.883Z,77.67
2019-05-10T11:27:47.631Z,77.83
2019-05-10T11:28:44.468Z,77.67
2019-05-10T11:29:43.869Z,78.15
2019-05-10T11:30:43.723Z,78.79
2019-05-10T11:31:43.263Z,77.02
2019-05-10T11:32:43.387Z,78.15
2019-05-10T11:33:47.245Z,77.34
2019-05-10T11:34:45.645Z,76.22
2019-05-10T11:35:43.864Z,81.21
2019-05-10T11:36:45.885Z,77.99
2019-05-10T11:37:45.905Z,79.12
2019-05-10T11:38:47.037Z,77.83
2019-05-10T11:39:47.273Z,78.96
2019-05-10T11:40:46.736Z,78.47
2019-05-10T11:41:44.959Z,78.15
2019-05-10T11:42:47.426Z,77.18
2019-05-10T11:43:46.370Z,80.57
2019-05-10T11:44:50.347Z,78.31
2019-05-10T11:45:47.672Z,82.18
2019-05-10T11:46:46.729Z,78.79
2019-05-10T11:47:48.229Z,78.15
2019-05-10T11:48:50.366Z,82.02
2019-05-10T11:49:47.249Z,79.76
2019-05-10T11:50:47.268Z,78.31
2019-05-10T11:51:47.891Z,75.09
2019-05-10T11:52:51.392Z,77.34
2019-05-10T11:53:49.006Z,78.15
2019-05-10T11:54:51.375Z,81.86
2019-05-10T11:55:48.247Z,77.50
2019-05-10T11:56:47.634Z,77.34
2019-05-10T11:59:05.072Z,79.12
2019-05-10T11:59:51.599Z,77.99
2019-05-10T12:00:55.676Z,76.54
2019-05-10T12:01:56.870Z,77.02
2019-05-10T12:03:07.421Z,79.28
2019-05-10T12:03:50.924Z,79.44
2019-05-10T12:04:52.447Z,78.63
2019-05-10T12:06:51.639Z,75.89
2019-05-10T12:07:51.705Z,81.37
2019-05-10T12:08:59.867Z,77.02
2019-05-10T12:10:03.299Z,80.24
2019-05-10T12:10:56.723Z,76.54
2019-05-10T12:11:56.422Z,77.02
2019-05-10T12:13:06.041Z,77.99
2019-05-10T12:14:53.940Z,79.44
2019-05-10T12:15:52.307Z,78.96
2019-05-10T12:16:54.552Z,78.79
2019-05-10T12:19:06.807Z,80.41
2019-05-10T12:19:56.349Z,78.63
2019-05-10T12:21:04.145Z,81.21
2019-05-10T12:21:56.007Z,78.63
2019-05-10T12:22:53.605Z,77.83
2019-05-10T12:23:56.174Z,78.15
2019-05-10T12:26:05.336Z,78.15
2019-05-10T12:26:16.348Z,77.02
2019-05-10T12:26:18.753Z,78.31
2019-05-10T12:26:31.278Z,75.73
2019-05-10T12:27:07.376Z,78.31
2019-05-10T12:27:55.423Z,81.21
2019-05-10T12:28:53.613Z,74.77
2019-05-10T12:29:59.543Z,77.67
2019-05-10T12:30:56.111Z,77.18
2019-05-10T12:31:57.043Z,80.41
2019-05-10T12:32:58.115Z,76.86
2019-05-10T12:34:02.443Z,76.22
2019-05-10T12:34:56.766Z,75.89
2019-05-10T12:35:56.154Z,80.24
2019-05-10T12:36:57.597Z,77.83
2019-05-10T12:37:57.613Z,78.79
2019-05-10T12:38:56.711Z,81.05
2019-05-10T12:40:06.277Z,87.50
2019-05-10T12:40:58.168Z,83.63
2019-05-10T12:41:56.400Z,77.02
2019-05-10T12:42:57.252Z,77.02
2019-05-10T12:44:03.012Z,76.54
2019-05-10T12:45:01.150Z,79.76
2019-05-10T12:45:57.084Z,80.89
2019-05-10T12:46:57.227Z,78.79
2019-05-10T12:47:58.259Z,77.99
2019-05-10T12:48:58.252Z,76.05
2019-05-10T12:50:01.953Z,80.41
2019-05-10T12:51:07.557Z,79.44
2019-05-10T12:52:03.221Z,77.83
2019-05-10T12:53:08.213Z,77.99
2019-05-10T12:54:00.257Z,78.47
2019-05-10T12:54:58.482Z,80.89
2019-05-10T12:55:58.608Z,80.08
2019-05-10T12:56:58.796Z,79.60
2019-05-10T12:57:58.939Z,77.02